Time;durP1;ratioP1;P1;durP2;ratioP2;P2;SDS_P1;SDS_P2;PMS_P1;PMS_P2;Temp;Humidity;BMP_temperature;BMP_pressure;BME280_temperature;BME280_humidity;BME280_pressure;Samples;Min_cycle;Max_cycle;Signal;HPM_P1;HPM_P2
2022/12/14 00:00:40;;;;;;;61.47;22.55;;;;;;;-5.77;100.00;100549.03;7389629;19;20158;-59
2022/12/14 00:03:10;;;;;;;53.90;23.00;;;;;;;-5.66;100.00;100546.00;7387851;19;20257;-58
2022/12/14 00:05:43;;;;;;;62.60;23.85;;;;;;;-5.54;100.00;100538.81;7388197;19;20155;-59
2022/12/14 00:08:12;;;;;;;57.42;24.15;;;;;;;-5.48;100.00;100541.09;7389295;19;20150;-57
2022/12/14 00:10:43;;;;;;;56.67;21.98;;;;;;;-5.44;100.00;100545.69;7389374;19;20244;-59
2022/12/14 00:13:16;;;;;;;56.13;22.05;;;;;;;-5.45;100.00;100539.75;7388483;19;20182;-57
2022/12/14 00:15:45;;;;;;;57.50;21.40;;;;;;;-5.60;100.00;100546.63;7389118;19;20154;-57
2022/12/14 00:18:15;;;;;;;60.67;22.75;;;;;;;-5.75;100.00;100552.59;7388094;19;20146;-58
2022/12/14 00:20:53;;;;;;;55.80;20.98;;;;;;;-5.84;100.00;100558.44;7387490;19;20149;-58
2022/12/14 00:23:22;;;;;;;60.83;20.88;;;;;;;-5.88;100.00;100558.88;7388533;19;20174;-58
2022/12/14 00:25:52;;;;;;;57.53;22.15;;;;;;;-5.99;100.00;100569.41;7387363;19;20143;-59
2022/12/14 00:28:21;;;;;;;53.20;21.80;;;;;;;-5.97;100.00;100562.94;7388913;19;20181;-58
2022/12/14 00:30:58;;;;;;;45.95;20.25;;;;;;;-5.86;100.00;100554.88;7388340;19;20720;-59
2022/12/14 00:33:27;;;;;;;51.42;21.70;;;;;;;-5.85;100.00;100558.31;7387835;19;20178;-58
2022/12/14 00:35:59;;;;;;;49.63;21.08;;;;;;;-5.83;100.00;100546.78;7388487;19;20158;-59
2022/12/14 00:38:29;;;;;;;56.78;21.25;;;;;;;-5.84;100.00;100552.53;7387367;19;20162;-60
2022/12/14 00:40:59;;;;;;;52.15;22.48;;;;;;;-5.79;100.00;100540.44;7392718;19;20161;-58
2022/12/14 00:43:28;;;;;;;52.20;19.80;;;;;;;-5.88;100.00;100541.28;7394399;19;20185;-58
2022/12/14 00:45:58;;;;;;;57.10;21.95;;;;;;;-5.92;100.00;100546.72;7393507;19;20151;-57
2022/12/14 00:48:28;;;;;;;45.80;20.55;;;;;;;-5.96;100.00;100542.09;7394804;19;20170;-57
2022/12/14 00:51:01;;;;;;;50.40;20.65;;;;;;;-5.99;100.00;100539.28;7395766;19;20151;-59
2022/12/14 00:53:31;;;;;;;56.05;21.00;;;;;;;-6.11;100.00;100539.81;7394480;19;20178;-58
2022/12/14 00:56:06;;;;;;;53.25;21.88;;;;;;;-6.12;100.00;100548.06;7393627;19;20151;-58
2022/12/14 00:58:36;;;;;;;47.55;18.98;;;;;;;-6.09;100.00;100550.03;7394564;19;21057;-58
2022/12/14 01:01:07;;;;;;;49.65;18.77;;;;;;;-6.15;100.00;100555.28;7395751;19;20159;-58
2022/12/14 01:03:37;;;;;;;129.88;45.47;;;;;;;-2.47;100.00;100504.81;7393844;19;20277;-59
2022/12/14 01:06:15;;;;;;;127.93;42.83;;;;;;;-1.25;100.00;100484.16;7387337;19;20146;-56
2022/12/14 01:08:44;;;;;;;144.52;53.45;;;;;;;-2.24;100.00;100498.41;7394741;19;20310;-59
2022/12/14 01:11:14;;;;;;;89.28;34.78;;;;;;;-1.89;100.00;100503.19;7395458;19;20169;-57
2022/12/14 01:13:44;;;;;;;55.80;24.60;;;;;;;-2.04;100.00;100523.81;7394176;19;20193;-58
2022/12/14 01:16:18;;;;;;;47.05;20.08;;;;;;;-2.87;100.00;100542.53;7394702;19;20150;-59
2022/12/14 01:18:48;;;;;;;50.58;19.75;;;;;;;-3.33;100.00;100555.16;7394017;19;20150;-58
2022/12/14 01:21:22;;;;;;;46.30;18.80;;;;;;;-3.97;100.00;100576.00;7394433;19;20398;-59
2022/12/14 01:23:53;;;;;;;46.47;20.05;;;;;;;-4.50;100.00;100589.44;7393504;19;20185;-56
2022/12/14 01:26:24;;;;;;;40.22;18.95;;;;;;;-4.61;100.00;100590.88;7392321;19;20146;-59
2022/12/14 01:28:56;;;;;;;41.85;18.00;;;;;;;-4.84;100.00;100593.63;7393950;19;20904;-58
2022/12/14 01:31:27;;;;;;;48.63;19.58;;;;;;;-4.29;100.00;100578.81;7393574;19;20524;-56
2022/12/14 01:33:56;;;;;;;44.78;18.23;;;;;;;-4.29;100.00;100572.16;7392977;19;20213;-57
2022/12/14 01:36:30;;;;;;;49.78;18.85;;;;;;;-3.94;100.00;100564.59;7394484;19;20154;-56
2022/12/14 01:39:02;;;;;;;50.92;19.35;;;;;;;-4.51;100.00;100577.56;7392584;19;20536;-59
2022/12/14 01:41:33;;;;;;;45.67;18.42;;;;;;;-4.49;100.00;100578.63;7397990;19;20147;-58
2022/12/14 01:44:05;;;;;;;45.22;18.10;;;;;;;-4.77;100.00;100580.91;7397331;19;20163;-59
2022/12/14 01:46:37;;;;;;;41.50;16.35;;;;;;;-5.44;100.00;100590.97;7396579;19;20146;-56
2022/12/14 01:49:12;;;;;;;36.90;16.02;;;;;;;-5.78;100.00;100593.41;7398322;19;20131;-58
2022/12/14 01:51:48;;;;;;;39.45;16.10;;;;;;;-5.86;100.00;100595.09;7393685;19;20126;-58
2022/12/14 01:54:17;;;;;;;37.08;16.08;;;;;;;-6.02;100.00;100592.59;7395233;19;20169;-59
2022/12/14 01:56:47;;;;;;;42.60;17.88;;;;;;;-5.99;100.00;100587.00;7397626;19;20135;-58
2022/12/14 01:59:21;;;;;;;38.88;16.35;;;;;;;-5.99;100.00;100572.81;7393730;19;20127;-59
2022/12/14 02:01:50;;;;;;;36.50;15.90;;;;;;;-6.06;100.00;100579.59;7391589;19;20149;-58
2022/12/14 02:04:20;;;;;;;33.15;15.40;;;;;;;-6.21;100.00;100587.28;7397240;19;20181;-58
2022/12/14 02:06:53;;;;;;;36.58;15.32;;;;;;;-6.23;100.00;100593.78;7395523;19;20131;-57
2022/12/14 02:09:33;;;;;;;44.95;16.05;;;;;;;-6.26;100.00;100586.81;7398194;19;20142;-57
2022/12/14 02:12:07;;;;;;;38.80;15.82;;;;;;;-6.24;100.00;100577.78;7395992;19;20664;-59
2022/12/14 02:14:37;;;;;;;41.08;16.10;;;;;;;-6.30;100.00;100573.75;7394877;19;20166;-57
2022/12/14 02:17:08;;;;;;;39.80;15.98;;;;;;;-6.35;100.00;100570.78;7393730;19;20477;-58
2022/12/14 02:19:38;;;;;;;41.25;16.58;;;;;;;-6.30;100.00;100572.13;7393103;19;20127;-58
2022/12/14 02:22:29;;;;;;;37.47;16.05;;;;;;;-6.33;100.00;100560.88;7394194;19;20131;-59
2022/12/14 02:25:24;;;;;;;43.13;17.13;;;;;;;-6.30;100.00;100564.59;7391531;19;20182;-57
2022/12/14 02:28:20;;;;;;;39.53;15.10;;;;;;;-6.50;100.00;100565.00;7395700;19;20175;-59
2022/12/14 02:30:57;;;;;;;31.75;14.93;;;;;;;-6.57;100.00;100565.97;7396140;19;20135;-58
2022/12/14 02:33:36;;;;;;;38.40;16.15;;;;;;;-6.63;100.00;100555.25;7388995;19;20216;-59
2022/12/14 02:36:11;;;;;;;40.08;15.27;;;;;;;-6.68;100.00;100549.75;7396764;19;20628;-57
2022/12/14 02:38:48;;;;;;;40.75;17.08;;;;;;;-6.75;100.00;100541.41;7389911;19;20119;-58
2022/12/14 02:41:21;;;;;;;43.78;17.02;;;;;;;-6.75;100.00;100542.31;7390254;19;20466;-60
2022/12/14 02:43:56;;;;;;;41.92;16.40;;;;;;;-6.78;100.00;100541.97;7396682;19;20138;-58
2022/12/14 02:46:31;;;;;;;36.60;16.33;;;;;;;-6.89;100.00;100533.28;7396349;19;20726;-56
2022/12/14 02:49:03;;;;;;;35.35;15.63;;;;;;;-6.94;100.00;100535.31;7392978;19;20147;-59
2022/12/14 02:51:42;;;;;;;42.10;15.75;;;;;;;-6.88;100.00;100521.66;7393174;19;20498;-59
2022/12/14 02:54:14;;;;;;;38.50;15.70;;;;;;;-6.96;100.00;100519.22;7396735;19;20127;-58
2022/12/14 02:56:46;;;;;;;42.05;17.40;;;;;;;-6.94;100.00;100519.34;7392581;19;20138;-57
2022/12/14 02:59:17;;;;;;;46.38;17.60;;;;;;;-6.91;100.00;100520.56;7391983;19;20131;-59
2022/12/14 03:01:50;;;;;;;42.85;17.30;;;;;;;-7.01;100.00;100522.84;7392045;19;20162;-54
2022/12/14 03:04:20;;;;;;;32.30;14.52;;;;;;;-7.00;100.00;100509.56;7390661;19;20139;-56
2022/12/14 03:06:56;;;;;;;35.45;15.55;;;;;;;-6.98;100.00;100513.13;7391639;19;20650;-54
2022/12/14 03:09:27;;;;;;;37.92;15.32;;;;;;;-6.93;100.00;100504.47;7392111;19;20182;-57
2022/12/14 03:11:59;;;;;;;39.65;14.88;;;;;;;-6.95;100.00;100508.44;7394263;19;20226;-56
2022/12/14 03:14:31;;;;;;;37.00;14.88;;;;;;;-6.97;100.00;100504.00;7393747;19;20593;-59
2022/12/14 03:17:06;;;;;;;45.15;17.95;;;;;;;-6.99;100.00;100498.78;7392553;19;20123;-55
2022/12/14 03:19:39;;;;;;;35.25;15.43;;;;;;;-6.95;100.00;100500.91;7391601;19;20130;-57
2022/12/14 03:22:11;;;;;;;49.72;17.15;;;;;;;-7.05;100.00;100501.53;7391818;19;20165;-60
2022/12/14 03:24:43;;;;;;;44.30;17.70;;;;;;;-7.07;100.00;100489.56;7391934;19;20131;-59
2022/12/14 03:27:15;;;;;;;38.05;15.95;;;;;;;-6.91;100.00;100485.44;7390802;19;20151;-55
2022/12/14 03:29:48;;;;;;;34.42;15.45;;;;;;;-6.88;100.00;100479.88;7391381;19;20157;-57
2022/12/14 03:32:22;;;;;;;39.72;16.23;;;;;;;-6.98;100.00;100478.00;7390823;19;20166;-59
2022/12/14 03:34:56;;;;;;;42.83;17.15;;;;;;;-6.89;100.00;100478.09;7391728;19;20133;-58
2022/12/14 03:37:31;;;;;;;45.10;16.40;;;;;;;-6.88;100.00;100468.94;7391815;19;20154;-59
2022/12/14 03:40:01;;;;;;;44.60;18.23;;;;;;;-6.84;100.00;100476.06;7391107;19;20130;-57
2022/12/14 03:42:35;;;;;;;41.13;16.95;;;;;;;-6.83;100.00;100467.84;7389988;19;20643;-59
2022/12/14 03:45:09;;;;;;;39.97;15.48;;;;;;;-6.93;100.00;100469.34;7391702;19;20126;-58
2022/12/14 03:47:54;;;;;;;38.47;14.70;;;;;;;-6.99;100.00;100477.84;7389524;19;20131;-56
2022/12/14 03:50:26;;;;;;;40.08;16.23;;;;;;;-7.13;100.00;100472.22;7390941;19;20154;-56
2022/12/14 03:52:59;;;;;;;39.47;16.38;;;;;;;-7.24;100.00;100477.72;7390458;19;20167;-60
2022/12/14 03:55:33;;;;;;;49.10;17.17;;;;;;;-7.27;100.00;100463.22;7391025;19;20150;-58
2022/12/14 03:58:15;;;;;;;38.38;15.77;;;;;;;-7.28;100.00;100468.06;7391276;19;20129;-56
2022/12/14 04:00:50;;;;;;;40.33;16.05;;;;;;;-7.26;100.00;100465.00;7390477;19;20193;-59
2022/12/14 04:03:29;;;;;;;43.67;15.45;;;;;;;-7.21;100.00;100463.91;7393652;19;20539;-53
2022/12/14 04:06:03;;;;;;;37.92;15.23;;;;;;;-7.23;100.00;100460.31;7391455;19;20130;-56
2022/12/14 04:08:38;;;;;;;40.75;15.90;;;;;;;-7.22;100.00;100454.56;7390347;19;20138;-57
2022/12/14 04:19:32;;;;;;;40.80;16.58;;;;;;;-7.51;100.00;100447.31;7401810;19;20600;-59
2022/12/14 04:22:05;;;;;;;40.13;15.13;;;;;;;-7.48;100.00;100442.63;7401038;19;20167;-58
2022/12/14 04:27:24;;;;;;;36.58;16.23;;;;;;;-7.64;100.00;100445.06;7400224;19;20134;-58
2022/12/14 04:29:59;;;;;;;37.05;14.40;;;;;;;-7.50;100.00;100451.59;7397562;19;20127;-62
2022/12/14 04:32:32;;;;;;;36.88;14.60;;;;;;;-7.36;100.00;100434.66;7395933;19;20618;-59
2022/12/14 04:35:07;;;;;;;37.53;15.50;;;;;;;-7.23;100.00;100435.22;7397695;19;20131;-58
2022/12/14 04:37:38;;;;;;;55.40;20.25;;;;;;;-6.89;100.00;100439.56;7397184;19;20153;-57
2022/12/14 04:40:11;;;;;;;48.30;20.27;;;;;;;-5.30;100.00;100402.09;7400812;19;20597;-59
2022/12/14 04:42:45;;;;;;;107.18;38.30;;;;;;;-4.27;100.00;100381.69;7397830;19;20170;-59
2022/12/14 04:45:18;;;;;;;101.28;37.28;;;;;;;-3.36;100.00;100372.28;7402229;19;20131;-55
2022/12/14 04:47:58;;;;;;;58.50;24.73;;;;;;;-3.47;100.00;100379.78;7394874;19;20135;-60
2022/12/14 04:50:33;;;;;;;42.13;17.88;;;;;;;-4.77;100.00;100399.63;7396707;19;20154;-60
2022/12/14 04:53:05;;;;;;;34.15;16.00;;;;;;;-5.48;100.00;100418.72;7398141;19;20198;-58
2022/12/14 04:55:37;;;;;;;36.90;16.15;;;;;;;-5.73;100.00;100426.34;7399830;19;20134;-58
2022/12/14 04:58:11;;;;;;;50.05;17.20;;;;;;;-5.50;100.00;100424.38;7396999;19;20131;-56
2022/12/14 05:00:53;;;;;;;40.15;17.35;;;;;;;-5.30;100.00;100419.69;7396261;19;20134;-63
2022/12/14 05:03:25;;;;;;;50.05;18.83;;;;;;;-5.20;100.00;100425.63;7394328;19;20166;-60
2022/12/14 05:06:07;;;;;;;47.20;18.73;;;;;;;-5.00;100.00;100422.56;7396675;19;20139;-61
2022/12/14 05:09:07;;;;;;;45.05;17.10;;;;;;;-5.38;100.00;100425.59;7400707;19;20600;-57
2022/12/14 05:11:40;;;;;;;44.13;17.65;;;;;;;-5.52;100.00;100430.84;7397406;19;20174;-56
2022/12/14 05:14:31;;;;;;;41.13;16.52;;;;;;;-5.01;100.00;100421.66;7396832;19;20146;-60
2022/12/14 05:17:00;;;;;;;42.15;17.88;;;;;;;-5.10;100.00;100423.28;7396460;19;20598;-60
2022/12/14 05:19:36;;;;;;;46.20;17.73;;;;;;;-5.11;100.00;100419.00;7395218;19;20142;-61
2022/12/14 05:22:09;;;;;;;33.85;14.70;;;;;;;-5.84;100.00;100432.78;7395168;19;20186;-60
2022/12/14 05:24:39;;;;;;;36.42;15.50;;;;;;;-6.11;100.00;100440.91;7395886;19;20504;-60
2022/12/14 05:27:09;;;;;;;38.08;15.07;;;;;;;-6.33;100.00;100443.72;7393621;19;20131;-61
2022/12/14 05:29:38;;;;;;;35.53;15.65;;;;;;;-6.69;100.00;100449.19;7395597;19;20123;-60
2022/12/14 05:32:08;;;;;;;43.08;16.55;;;;;;;-6.88;100.00;100448.88;7394549;19;20531;-58
2022/12/14 05:34:37;;;;;;;45.45;17.35;;;;;;;-6.98;100.00;100445.38;7395643;19;20159;-56
2022/12/14 05:37:09;;;;;;;46.60;17.13;;;;;;;-6.39;100.00;100438.06;7395591;19;20127;-58
2022/12/14 05:39:46;;;;;;;35.13;16.58;;;;;;;-6.46;100.00;100431.50;7394955;19;20162;-58
2022/12/14 05:42:15;;;;;;;40.60;16.98;;;;;;;-6.86;100.00;100434.88;7394234;19;20167;-58
2022/12/14 05:44:45;;;;;;;44.33;17.02;;;;;;;-6.93;100.00;100434.22;7395061;19;20127;-57
2022/12/14 05:47:15;;;;;;;38.75;16.27;;;;;;;-6.98;100.00;100427.81;7394448;19;20126;-60
2022/12/14 05:49:45;;;;;;;44.35;16.80;;;;;;;-6.88;100.00;100428.81;7394560;19;20130;-60
2022/12/14 05:52:20;;;;;;;38.00;15.55;;;;;;;-7.01;100.00;100425.00;7394176;19;20549;-58
2022/12/14 05:54:49;;;;;;;42.38;16.75;;;;;;;-7.09;100.00;100423.28;7394848;19;20202;-58
2022/12/14 05:57:19;;;;;;;36.70;15.80;;;;;;;-7.13;100.00;100417.03;7395003;19;20155;-56
2022/12/14 05:59:49;;;;;;;43.05;16.55;;;;;;;-7.16;100.00;100418.34;7394538;19;20155;-59
2022/12/14 06:02:18;;;;;;;42.88;17.17;;;;;;;-7.20;100.00;100420.53;7393657;19;20198;-57
2022/12/14 06:04:48;;;;;;;37.67;15.23;;;;;;;-7.37;100.00;100415.31;7394248;19;20131;-61
2022/12/14 06:07:20;;;;;;;39.55;16.95;;;;;;;-7.50;100.00;100420.59;7396598;19;20198;-57
2022/12/14 06:09:55;;;;;;;39.30;16.67;;;;;;;-7.69;100.00;100416.16;7393856;19;20145;-56
2022/12/14 06:12:25;;;;;;;40.67;16.88;;;;;;;-7.70;100.00;100414.34;7393274;19;20162;-60
2022/12/14 06:14:54;;;;;;;44.65;18.38;;;;;;;-7.63;100.00;100410.91;7394213;19;20168;-57
2022/12/14 06:17:24;;;;;;;45.22;17.52;;;;;;;-7.59;100.00;100410.50;7394051;19;20127;-59
2022/12/14 06:19:53;;;;;;;44.45;17.08;;;;;;;-7.61;100.00;100404.41;7394075;19;20131;-60
2022/12/14 06:22:26;;;;;;;45.72;17.60;;;;;;;-7.69;100.00;100401.09;7393026;19;20170;-60
2022/12/14 06:24:55;;;;;;;47.45;16.80;;;;;;;-7.62;100.00;100403.56;7394152;19;20139;-58
2022/12/14 06:27:25;;;;;;;48.85;17.77;;;;;;;-7.64;100.00;100402.47;7393183;19;20135;-56
2022/12/14 06:29:54;;;;;;;44.38;17.05;;;;;;;-7.51;100.00;100393.78;7393074;19;20143;-56
2022/12/14 06:32:24;;;;;;;47.15;17.80;;;;;;;-7.61;100.00;100395.31;7392919;19;20660;-59
2022/12/14 06:34:54;;;;;;;39.70;17.30;;;;;;;-7.71;100.00;100396.66;7393642;19;20162;-58
2022/12/14 06:37:25;;;;;;;38.33;16.35;;;;;;;-7.62;100.00;100388.50;7398014;19;20151;-57
2022/12/14 06:39:55;;;;;;;44.88;17.70;;;;;;;-7.56;100.00;100388.28;7392834;19;20142;-58
2022/12/14 06:42:24;;;;;;;37.13;16.83;;;;;;;-7.57;100.00;100390.59;7392484;19;20162;-57
2022/12/14 06:44:54;;;;;;;45.67;17.17;;;;;;;-7.55;100.00;100390.03;7393702;19;20150;-59
2022/12/14 06:47:24;;;;;;;45.83;17.45;;;;;;;-7.77;100.00;100392.75;7392641;19;20133;-57
2022/12/14 06:49:54;;;;;;;56.03;20.25;;;;;;;-7.78;100.00;100387.56;7393263;19;20134;-59
2022/12/14 06:52:26;;;;;;;42.80;17.77;;;;;;;-7.84;100.00;100382.78;7392455;19;20186;-58
2022/12/14 06:54:56;;;;;;;47.65;18.25;;;;;;;-7.70;100.00;100379.25;7393346;19;20205;-57
2022/12/14 06:57:26;;;;;;;42.85;16.85;;;;;;;-7.60;100.00;100373.63;7393343;19;20162;-57
2022/12/14 06:59:55;;;;;;;44.17;17.58;;;;;;;-7.51;100.00;100367.09;7392541;19;20127;-58
2022/12/14 07:02:24;;;;;;;37.70;17.40;;;;;;;-7.37;100.00;100367.69;7392600;19;20159;-59
2022/12/14 07:04:54;;;;;;;49.42;18.17;;;;;;;-7.36;100.00;100364.44;7394691;19;20130;-59
2022/12/14 07:07:26;;;;;;;37.25;15.82;;;;;;;-7.52;100.00;100365.31;7392654;19;20139;-61
2022/12/14 07:09:56;;;;;;;36.25;15.68;;;;;;;-7.59;100.00;100357.88;7392223;19;20135;-60
2022/12/14 07:12:26;;;;;;;47.40;18.65;;;;;;;-7.62;100.00;100358.44;7391598;19;20162;-60
2022/12/14 07:14:56;;;;;;;45.63;17.10;;;;;;;-7.63;100.00;100355.75;7392341;19;20131;-59
2022/12/14 07:17:25;;;;;;;51.30;19.38;;;;;;;-7.54;100.00;100356.72;7394151;19;20123;-60
2022/12/14 07:19:55;;;;;;;43.28;17.42;;;;;;;-7.56;100.00;100362.31;7392063;19;20139;-61
2022/12/14 07:22:27;;;;;;;44.45;18.63;;;;;;;-7.71;100.00;100357.44;7392096;19;20166;-60
2022/12/14 07:24:57;;;;;;;45.83;17.40;;;;;;;-7.81;100.00;100350.53;7392644;19;20154;-56
2022/12/14 07:27:26;;;;;;;49.50;18.80;;;;;;;-7.65;100.00;100352.22;7392871;19;20154;-60
2022/12/14 07:29:56;;;;;;;41.53;17.67;;;;;;;-7.51;100.00;100347.06;7393033;19;20138;-60
2022/12/14 07:32:25;;;;;;;45.45;19.08;;;;;;;-7.44;100.00;100345.19;7391343;19;20201;-61
2022/12/14 07:34:55;;;;;;;42.58;17.80;;;;;;;-7.45;100.00;100341.78;7392678;19;20135;-61
2022/12/14 07:37:27;;;;;;;42.83;18.08;;;;;;;-7.49;100.00;100344.72;7392011;19;20170;-62
2022/12/14 07:39:56;;;;;;;46.80;17.30;;;;;;;-7.42;100.00;100341.22;7391347;19;20127;-61
2022/12/14 07:42:26;;;;;;;48.53;19.67;;;;;;;-7.50;100.00;100346.31;7390369;19;20166;-61
2022/12/14 07:44:55;;;;;;;45.78;18.55;;;;;;;-7.58;100.00;100349.63;7391822;19;20123;-61
2022/12/14 07:47:24;;;;;;;46.65;19.38;;;;;;;-7.53;100.00;100348.50;7391943;19;20131;-61
2022/12/14 07:49:54;;;;;;;44.90;18.27;;;;;;;-7.52;100.00;100349.38;7387912;19;20123;-61
2022/12/14 07:52:23;;;;;;;49.05;19.15;;;;;;;-7.57;100.00;100346.41;7390491;19;20173;-57
2022/12/14 07:54:55;;;;;;;53.28;19.75;;;;;;;-7.53;100.00;100353.53;7391781;19;20154;-61
2022/12/14 07:57:25;;;;;;;48.35;19.02;;;;;;;-7.48;100.00;100352.38;7391382;19;20127;-61
2022/12/14 07:59:54;;;;;;;46.55;19.00;;;;;;;-7.41;100.00;100340.50;7390266;19;20593;-61
2022/12/14 08:02:25;;;;;;;51.65;19.25;;;;;;;-7.44;100.00;100346.06;7391006;19;20186;-61
2022/12/14 08:04:55;;;;;;;48.60;19.58;;;;;;;-7.48;100.00;100341.47;7392217;19;20159;-62
2022/12/14 08:07:25;;;;;;;53.55;21.70;;;;;;;-7.53;100.00;100342.59;7395642;19;20757;-61
2022/12/14 08:09:57;;;;;;;41.63;18.30;;;;;;;-7.70;100.00;100338.28;7392053;19;20135;-61
2022/12/14 08:12:26;;;;;;;57.60;21.08;;;;;;;-7.67;100.00;100346.13;7390730;19;20166;-61
2022/12/14 08:14:55;;;;;;;51.95;19.88;;;;;;;-7.71;100.00;100344.91;7394439;19;20138;-61
2022/12/14 08:17:25;;;;;;;58.63;18.80;;;;;;;-7.74;100.00;100342.97;7395191;19;20127;-61
2022/12/14 08:19:54;;;;;;;48.60;19.83;;;;;;;-7.71;100.00;100341.53;7389919;19;20131;-61
2022/12/14 08:22:24;;;;;;;54.72;20.60;;;;;;;-7.66;100.00;100335.38;7389815;19;20182;-61
2022/12/14 08:24:53;;;;;;;55.92;19.70;;;;;;;-7.45;100.00;100336.78;7393926;19;20139;-61
2022/12/14 08:27:25;;;;;;;48.15;18.10;;;;;;;-7.33;100.00;100337.22;7394748;19;20247;-61
2022/12/14 08:29:55;;;;;;;47.88;19.65;;;;;;;-7.47;100.00;100328.22;7392402;19;20139;-62
2022/12/14 08:32:24;;;;;;;47.35;19.55;;;;;;;-7.53;100.00;100330.97;7389039;19;20544;-61
2022/12/14 08:35:00;;;;;;;43.40;19.08;;;;;;;-7.52;100.00;100324.31;7390137;19;20169;-56
2022/12/14 08:37:30;;;;;;;40.05;18.05;;;;;;;-7.51;100.00;100326.09;7390310;19;20123;-61
2022/12/14 08:39:59;;;;;;;41.70;18.70;;;;;;;-7.44;100.00;100322.63;7389669;19;20132;-62
2022/12/14 08:42:31;;;;;;;44.35;19.95;;;;;;;-7.27;100.00;100316.88;7388974;19;20223;-61
2022/12/14 08:45:01;;;;;;;45.42;18.38;;;;;;;-7.20;100.00;100315.19;7390276;19;20130;-60
2022/12/14 08:47:30;;;;;;;47.88;19.20;;;;;;;-7.21;100.00;100310.91;7389575;19;20127;-61
2022/12/14 08:50:00;;;;;;;43.25;19.23;;;;;;;-7.14;100.00;100309.94;7387958;19;20131;-62
2022/12/14 08:52:29;;;;;;;46.70;18.55;;;;;;;-7.20;100.00;100305.16;7388261;19;20173;-61
2022/12/14 08:54:59;;;;;;;44.13;19.38;;;;;;;-7.06;100.00;100299.09;7389641;19;20652;-61
2022/12/14 08:57:33;;;;;;;52.92;22.10;;;;;;;-7.00;100.00;100292.91;7389556;19;20143;-61
2022/12/14 09:00:02;;;;;;;76.20;29.92;;;;;;;-6.60;100.00;100288.63;7389578;19;20127;-61
2022/12/14 09:02:32;;;;;;;49.60;20.58;;;;;;;-6.83;100.00;100278.00;7398366;19;20170;-62
2022/12/14 09:05:01;;;;;;;51.35;20.52;;;;;;;-6.94;100.00;100269.38;7396482;19;20170;-62
2022/12/14 09:07:31;;;;;;;51.13;21.90;;;;;;;-6.93;100.00;100265.22;7396253;19;20126;-61
2022/12/14 09:10:01;;;;;;;46.30;20.20;;;;;;;-6.88;100.00;100269.09;7394004;19;20484;-62
2022/12/14 09:12:34;;;;;;;43.65;19.20;;;;;;;-6.88;100.00;100261.56;7399637;19;20177;-61
2022/12/14 09:15:03;;;;;;;47.25;19.98;;;;;;;-6.91;100.00;100262.13;7396557;19;20123;-61
2022/12/14 09:17:33;;;;;;;55.45;23.05;;;;;;;-6.69;100.00;100260.94;7396529;19;20142;-62
2022/12/14 09:20:02;;;;;;;65.20;25.35;;;;;;;-6.60;100.00;100258.50;7395907;19;20475;-61
2022/12/14 09:22:32;;;;;;;64.85;25.50;;;;;;;-6.47;100.00;100253.13;7394383;19;20170;-61
2022/12/14 09:25:03;;;;;;;56.90;23.25;;;;;;;-6.30;100.00;100248.13;7396257;19;20135;-60
2022/12/14 09:27:35;;;;;;;42.95;19.92;;;;;;;-6.40;100.00;100250.47;7395841;19;20139;-62
2022/12/14 09:30:05;;;;;;;57.70;21.70;;;;;;;-6.42;100.00;100251.97;7394357;19;20151;-60
2022/12/14 09:32:34;;;;;;;49.72;19.65;;;;;;;-6.48;100.00;100249.69;7394151;19;20189;-57
2022/12/14 09:35:04;;;;;;;48.38;19.80;;;;;;;-6.35;100.00;100253.44;7396068;19;20135;-60
2022/12/14 09:37:33;;;;;;;49.30;21.58;;;;;;;-6.30;100.00;100252.28;7395838;19;20151;-60
2022/12/14 09:40:03;;;;;;;60.67;23.48;;;;;;;-6.18;100.00;100251.00;7395003;19;20131;-58
2022/12/14 09:42:49;;;;;;;56.50;20.20;;;;;;;-6.20;100.00;100252.50;7393870;19;20162;-59
2022/12/14 09:45:23;;;;;;;43.90;19.67;;;;;;;-5.56;100.00;100236.03;7395571;19;20223;-58
2022/12/14 09:47:57;;;;;;;58.00;23.85;;;;;;;-4.58;100.00;100232.69;7395718;19;20138;-58
2022/12/14 09:50:27;;;;;;;55.72;23.98;;;;;;;-4.28;100.00;100225.31;7393006;19;20127;-62
2022/12/14 09:52:59;;;;;;;46.65;21.20;;;;;;;-4.21;100.00;100218.47;7393371;19;20167;-61
2022/12/14 09:55:32;;;;;;;53.33;20.20;;;;;;;-3.93;100.00;100215.94;7395141;19;20178;-60
2022/12/14 09:58:08;;;;;;;54.78;19.17;;;;;;;-4.07;100.00;100221.38;7396353;19;20141;-60
2022/12/14 10:00:43;;;;;;;40.92;19.48;;;;;;;-3.74;100.00;100217.59;7395886;19;20123;-60
2022/12/14 10:03:34;;;;;;;37.25;16.85;;;;;;;-4.15;100.00;100247.50;7392321;19;20185;-55
2022/12/14 10:06:34;;;;;;;39.85;17.92;;;;;;;-4.08;100.00;100253.25;7392848;19;20149;-56
2022/12/14 10:09:13;;;;;;;38.58;18.13;;;;;;;-3.97;100.00;100249.19;7386429;19;20552;-58
2022/12/14 10:11:49;;;;;;;40.30;18.13;;;;;;;-3.89;100.00;100247.38;7391604;19;20209;-60
2022/12/14 10:14:27;;;;;;;37.25;18.23;;;;;;;-3.55;100.00;100254.56;7392264;19;20209;-60
2022/12/14 10:17:01;;;;;;;38.08;17.20;;;;;;;-3.69;100.00;100260.91;7389207;19;20262;-59
2022/12/14 10:19:39;;;;;;;44.13;18.60;;;;;;;-3.86;100.00;100270.34;7393186;19;20684;-60
2022/12/14 10:22:13;;;;;;;35.75;17.30;;;;;;;-3.58;100.00;100265.28;7387908;19;20193;-58
2022/12/14 10:24:45;;;;;;;41.60;16.73;;;;;;;-3.13;100.00;100251.59;7393281;19;20138;-62
2022/12/14 10:27:22;;;;;;;38.40;17.23;;;;;;;-3.43;100.00;100265.75;7389454;19;20562;-59
2022/12/14 10:30:00;;;;;;;44.47;16.75;;;;;;;-3.89;100.00;100276.75;7391038;19;20160;-60
2022/12/14 10:32:34;;;;;;;34.97;15.52;;;;;;;-4.08;100.00;100275.94;7388116;19;20201;-60
2022/12/14 10:35:14;;;;;;;46.28;21.80;;;;;;;-4.12;100.00;100283.06;7393304;19;20142;-61
2022/12/14 10:37:46;;;;;;;34.90;17.05;;;;;;;-4.12;100.00;100278.03;7387905;19;20201;-59
2022/12/14 10:40:19;;;;;;;36.47;17.48;;;;;;;-4.14;100.00;100285.47;7392558;19;20167;-59
2022/12/14 10:43:09;;;;;;;39.50;16.98;;;;;;;-4.10;100.00;100276.53;7385685;19;20230;-59
2022/12/14 10:45:43;;;;;;;34.92;16.20;;;;;;;-4.08;100.00;100282.59;7393632;19;20143;-56
2022/12/14 10:48:40;;;;;;;35.67;17.52;;;;;;;-4.09;100.00;100274.16;7385455;19;20284;-55
2022/12/14 10:51:13;;;;;;;49.10;21.58;;;;;;;-4.07;100.00;100276.81;7391026;19;20740;-56
2022/12/14 10:53:46;;;;;;;40.28;17.80;;;;;;;-4.08;100.00;100272.53;7387654;19;20558;-59
2022/12/14 10:56:21;;;;;;;34.33;17.38;;;;;;;-3.98;100.00;100271.75;7386846;19;20147;-58
2022/12/14 10:59:14;;;;;;;40.75;17.30;;;;;;;-3.85;100.00;100266.19;7391615;19;20225;-58
2022/12/14 11:01:49;;;;;;;35.63;17.13;;;;;;;-3.70;100.00;100272.63;7391689;19;20190;-58
2022/12/14 11:04:29;;;;;;;33.88;15.85;;;;;;;-3.80;100.00;100272.53;7391634;19;20667;-58
2022/12/14 11:07:00;;;;;;;32.40;15.00;;;;;;;-3.81;100.00;100276.69;7369120;19;20189;-54
2022/12/14 11:09:30;;;;;;;30.25;15.05;;;;;;;-3.80;100.00;100273.44;7389672;19;20142;-54
2022/12/14 11:12:01;;;;;;;35.45;16.10;;;;;;;-3.80;100.00;100277.56;7384034;19;20174;-56
2022/12/14 11:14:31;;;;;;;37.40;16.45;;;;;;;-3.76;100.00;100274.59;7392095;19;20516;-60
2022/12/14 11:17:04;;;;;;;34.42;16.33;;;;;;;-3.60;100.00;100270.97;7387234;19;20158;-61
2022/12/14 11:19:36;;;;;;;34.50;16.85;;;;;;;-3.54;100.00;100266.47;7391079;19;20147;-59
2022/12/14 11:22:11;;;;;;;31.23;15.27;;;;;;;-3.72;100.00;100271.63;7385907;19;20190;-58
2022/12/14 11:24:50;;;;;;;30.90;14.52;;;;;;;-3.64;100.00;100273.94;7390929;19;20163;-58
2022/12/14 11:27:22;;;;;;;35.35;15.38;;;;;;;-3.51;100.00;100266.72;7384868;19;20657;-58
2022/12/14 11:29:52;;;;;;;36.00;16.02;;;;;;;-3.33;100.00;100264.09;7390355;19;20150;-59
2022/12/14 11:32:26;;;;;;;31.63;15.20;;;;;;;-3.38;100.00;100271.25;7374111;19;20687;-59
2022/12/14 11:35:00;;;;;;;37.67;16.30;;;;;;;-3.31;100.00;100265.09;7391137;19;20147;-58
2022/12/14 11:37:31;;;;;;;41.13;15.82;;;;;;;-3.22;100.00;100265.94;7385125;19;20239;-61